createdAt,value
2019-04-28T00:00:16.047Z,1.87
2019-04-28T00:02:44.669Z,1.87
2019-04-28T00:05:13.407Z,1.60
2019-04-28T00:07:42.081Z,1.65
2019-04-28T00:10:11.030Z,2.00
2019-04-28T00:12:41.231Z,1.72
2019-04-28T00:15:10.829Z,1.95
2019-04-28T00:17:39.717Z,1.75
2019-04-28T00:20:10.692Z,1.85
2019-04-28T00:22:44.859Z,1.50
2019-04-28T00:25:21.540Z,2.35
2019-04-28T00:27:51.610Z,2.17
2019-04-28T00:30:21.760Z,2.45
2019-04-28T00:32:51.848Z,2.20
2019-04-28T00:35:23.267Z,1.95
2019-04-28T00:37:52.013Z,2.00
2019-04-28T00:40:21.737Z,2.30
2019-04-28T00:42:52.095Z,1.90
2019-04-28T00:45:21.491Z,2.50
2019-04-28T00:47:51.065Z,2.10
2019-04-28T00:50:21.718Z,2.40
2019-04-28T00:52:51.784Z,1.72
2019-04-28T00:55:21.206Z,2.30
2019-04-28T00:57:50.986Z,3.35
2019-04-28T01:00:23.107Z,2.70
2019-04-28T01:02:52.381Z,2.10
2019-04-28T01:05:21.422Z,2.27
2019-04-28T01:07:51.116Z,4.05
2019-04-28T01:10:22.410Z,2.00
2019-04-28T01:12:51.054Z,3.92
2019-04-28T01:15:24.007Z,2.43
2019-04-28T01:17:54.317Z,2.30
2019-04-28T01:20:26.200Z,2.62
2019-04-28T01:22:54.970Z,3.10
2019-04-28T01:25:23.671Z,4.53
2019-04-28T01:27:53.810Z,2.58
2019-04-28T01:30:40.188Z,3.58
2019-04-28T01:33:11.014Z,3.70
2019-04-28T01:35:39.823Z,2.87
2019-04-28T01:38:09.926Z,2.95
2019-04-28T01:40:38.911Z,3.25
2019-04-28T01:43:07.607Z,2.60
2019-04-28T01:45:36.303Z,3.20
2019-04-28T01:48:05.011Z,2.30
2019-04-28T01:50:33.714Z,2.55
2019-04-28T01:53:02.339Z,2.10
2019-04-28T01:55:31.060Z,2.47
2019-04-28T01:58:01.627Z,2.27
2019-04-28T02:00:30.100Z,2.50
2019-04-28T02:03:00.193Z,2.42
2019-04-28T02:05:31.478Z,1.92
2019-04-28T02:08:00.368Z,2.37
2019-04-28T02:10:30.131Z,2.62
2019-04-28T02:12:59.924Z,2.10
2019-04-28T02:15:30.212Z,2.95
2019-04-28T02:18:00.106Z,2.08
2019-04-28T02:20:30.126Z,1.70
2019-04-28T02:23:00.695Z,2.60
2019-04-28T02:25:29.883Z,2.17
2019-04-28T02:27:59.589Z,3.08
2019-04-28T02:30:44.668Z,1.67
2019-04-28T02:33:01.696Z,4.22
2019-04-28T02:35:31.651Z,2.33
2019-04-28T02:38:00.134Z,1.70
2019-04-28T02:40:30.569Z,2.30
2019-04-28T02:43:01.448Z,2.45
2019-04-28T02:45:31.581Z,2.25
2019-04-28T02:48:01.654Z,2.05
2019-04-28T02:50:33.133Z,2.87
2019-04-28T02:53:03.682Z,3.90
2019-04-28T02:55:32.724Z,3.10
2019-04-28T02:58:01.798Z,1.95
2019-04-28T03:00:31.688Z,2.00
2019-04-28T03:03:01.564Z,2.23
2019-04-28T03:05:33.136Z,2.50
2019-04-28T03:08:01.202Z,1.50
2019-04-28T03:10:31.020Z,2.55
2019-04-28T03:13:01.078Z,1.60
2019-04-28T03:15:30.662Z,2.20
2019-04-28T03:18:01.807Z,1.67
2019-04-28T03:20:30.756Z,1.40
2019-04-28T03:23:00.959Z,1.42
2019-04-28T03:25:43.132Z,1.65
2019-04-28T03:28:13.397Z,1.27
2019-04-28T03:31:06.612Z,1.65
2019-04-28T03:33:34.003Z,1.52
2019-04-28T03:36:07.504Z,1.85
2019-04-28T03:38:33.013Z,1.55
2019-04-28T03:41:01.782Z,1.98
2019-04-28T03:43:30.585Z,2.08
2019-04-28T03:46:04.285Z,1.25
2019-04-28T03:48:33.689Z,1.82
2019-04-28T03:51:02.562Z,1.22
2019-04-28T03:53:31.543Z,1.40
2019-04-28T03:56:01.591Z,1.40
2019-04-28T03:58:31.175Z,1.40
2019-04-28T04:01:03.269Z,1.22
2019-04-28T04:03:31.110Z,1.50
2019-04-28T04:06:01.085Z,1.40
2019-04-28T04:08:31.021Z,1.62
2019-04-28T04:11:04.487Z,2.02
2019-04-28T04:13:51.412Z,2.15
2019-04-28T04:16:22.079Z,1.50
2019-04-28T04:18:53.744Z,1.20
2019-04-28T04:21:23.024Z,1.55
2019-04-28T04:23:51.863Z,0.90
2019-04-28T04:26:21.609Z,1.00
2019-04-28T04:28:51.443Z,1.10
2019-04-28T04:31:21.147Z,1.10
2019-04-28T04:33:50.549Z,1.17
2019-04-28T04:36:21.063Z,0.90
2019-04-28T04:38:51.394Z,1.00
2019-04-28T04:41:20.837Z,1.10
2019-04-28T04:43:51.253Z,0.60
2019-04-28T04:46:25.045Z,1.22
2019-04-28T04:48:57.002Z,0.70
2019-04-28T04:51:25.795Z,1.27
2019-04-28T04:53:54.528Z,0.80
2019-04-28T04:56:23.795Z,0.65
2019-04-28T04:58:54.624Z,0.70
2019-04-28T05:01:36.423Z,0.60
2019-04-28T05:04:24.117Z,0.60
2019-04-28T05:06:53.033Z,0.80
2019-04-28T05:09:24.252Z,0.90
2019-04-28T05:11:52.952Z,0.80
2019-04-28T05:14:21.941Z,0.88
2019-04-28T05:16:50.977Z,0.83
2019-04-28T05:19:20.958Z,0.50
2019-04-28T05:21:50.040Z,1.10
2019-04-28T05:24:40.226Z,0.60
2019-04-28T05:27:09.843Z,0.50
2019-04-28T05:29:39.842Z,1.57
2019-04-28T05:32:10.656Z,1.02
2019-04-28T05:34:46.382Z,1.20
2019-04-28T05:37:11.821Z,0.70
2019-04-28T05:39:40.688Z,0.78
2019-04-28T05:42:11.384Z,0.87
2019-04-28T05:44:40.882Z,0.75
2019-04-28T05:47:10.231Z,0.90
2019-04-28T05:49:51.321Z,0.80
2019-04-28T05:52:40.214Z,0.67
2019-04-28T05:55:10.570Z,1.40
2019-04-28T05:57:51.554Z,1.10
2019-04-28T06:00:19.794Z,0.70
2019-04-28T06:02:56.580Z,1.02
2019-04-28T06:05:23.241Z,1.12
2019-04-28T06:08:10.020Z,1.10
2019-04-28T06:10:39.935Z,1.15
2019-04-28T06:13:09.985Z,0.70
2019-04-28T06:15:39.652Z,1.70
2019-04-28T06:18:10.292Z,0.80
2019-04-28T06:20:40.531Z,1.40
2019-04-28T06:23:09.064Z,2.10
2019-04-28T06:25:37.725Z,1.87
2019-04-28T06:28:06.360Z,2.90
2019-04-28T06:30:35.336Z,1.40
2019-04-28T06:33:07.936Z,2.20
2019-04-28T06:35:34.542Z,4.35
2019-04-28T06:38:03.340Z,3.83
2019-04-28T06:40:32.001Z,2.20
2019-04-28T06:43:00.720Z,1.70
2019-04-28T06:45:29.513Z,1.98
2019-04-28T06:47:58.187Z,1.60
2019-04-28T06:50:26.889Z,1.77
2019-04-28T06:52:55.681Z,1.70
2019-04-28T06:55:24.365Z,1.50
2019-04-28T06:57:53.090Z,1.50
2019-04-28T07:00:21.964Z,1.70
2019-04-28T07:02:50.659Z,1.92
2019-04-28T07:05:19.349Z,1.60
2019-04-28T07:07:48.590Z,1.95
2019-04-28T07:10:17.354Z,3.50
2019-04-28T07:12:46.133Z,1.60
2019-04-28T07:15:15.053Z,1.52
2019-04-28T07:17:43.708Z,6.80
2019-04-28T07:20:30.186Z,3.22
2019-04-28T07:22:58.899Z,2.12
2019-04-28T07:25:31.027Z,5.67
2019-04-28T07:27:59.677Z,5.10
2019-04-28T07:30:30.399Z,1.57
2019-04-28T07:32:58.715Z,1.75
2019-04-28T07:35:27.388Z,2.62
2019-04-28T07:37:57.123Z,2.60
2019-04-28T07:40:25.846Z,1.70
2019-04-28T07:42:54.556Z,3.00
2019-04-28T07:45:23.223Z,1.40
2019-04-28T07:47:51.941Z,1.60
2019-04-28T07:50:20.622Z,1.62
2019-04-28T07:53:03.341Z,2.25
2019-04-28T07:55:31.945Z,1.47
2019-04-28T07:58:00.611Z,1.67
2019-04-28T08:00:30.707Z,2.20
2019-04-28T08:03:01.050Z,2.50
2019-04-28T08:05:29.734Z,2.33
2019-04-28T08:07:58.450Z,3.08
2019-04-28T08:10:27.139Z,2.22
2019-04-28T08:12:55.865Z,2.10
2019-04-28T08:15:24.725Z,2.17
2019-04-28T08:17:53.603Z,2.15
2019-04-28T08:20:22.511Z,2.60
2019-04-28T08:22:51.125Z,2.70
2019-04-28T08:25:21.318Z,2.00
2019-04-28T08:27:49.918Z,2.42
2019-04-28T08:30:18.616Z,3.70
2019-04-28T08:32:54.947Z,2.35
2019-04-28T08:35:27.617Z,3.00
2019-04-28T08:37:56.537Z,1.72
2019-04-28T08:40:26.821Z,2.17
2019-04-28T08:42:55.474Z,3.20
2019-04-28T08:45:24.550Z,3.27
2019-04-28T08:47:53.741Z,4.20
2019-04-28T08:50:22.762Z,2.90
2019-04-28T08:52:52.145Z,2.25
2019-04-28T08:55:20.842Z,3.30
2019-04-28T08:57:49.638Z,3.37
2019-04-28T09:00:19.041Z,3.33
2019-04-28T09:02:50.611Z,3.98
2019-04-28T09:05:20.000Z,3.15
2019-04-28T09:07:48.981Z,2.90
2019-04-28T09:10:18.194Z,3.35
2019-04-28T09:12:51.676Z,2.98
2019-04-28T09:15:21.856Z,2.70
2019-04-28T09:17:51.064Z,3.35
2019-04-28T09:20:19.682Z,3.45
2019-04-28T09:22:48.327Z,2.15
2019-04-28T09:25:17.036Z,3.83
2019-04-28T09:27:45.661Z,2.87
2019-04-28T09:30:17.491Z,3.65
2019-04-28T09:32:46.185Z,3.33
2019-04-28T09:35:14.849Z,3.40
2019-04-28T09:37:43.742Z,2.52
2019-04-28T09:40:14.259Z,2.22
2019-04-28T09:42:48.602Z,2.95
2019-04-28T09:45:20.195Z,3.33
2019-04-28T09:47:49.252Z,2.67
2019-04-28T09:50:18.148Z,3.20
2019-04-28T09:52:48.875Z,4.10
2019-04-28T09:55:18.253Z,2.47
2019-04-28T09:57:49.557Z,3.58
2019-04-28T10:00:18.635Z,4.22
2019-04-28T10:02:47.601Z,4.33
2019-04-28T10:05:16.307Z,4.00
2019-04-28T10:07:48.440Z,2.75
2019-04-28T10:10:17.461Z,3.58
2019-04-28T10:12:47.077Z,3.10
2019-04-28T10:15:16.245Z,2.20
2019-04-28T10:17:46.801Z,2.67
2019-04-28T10:20:16.765Z,3.10
2019-04-28T10:22:46.000Z,3.50
2019-04-28T10:25:15.106Z,4.20
2019-04-28T10:27:43.841Z,3.52
2019-04-28T10:30:13.380Z,3.47
2019-04-28T10:32:45.567Z,3.87
2019-04-28T10:35:14.773Z,3.15
2019-04-28T10:37:45.583Z,3.05
2019-04-28T10:40:23.176Z,3.10
2019-04-28T10:42:52.096Z,3.60
2019-04-28T10:45:22.769Z,3.20
2019-04-28T10:47:53.417Z,2.87
2019-04-28T10:50:22.884Z,3.08
2019-04-28T10:52:51.537Z,3.10
2019-04-28T10:55:20.471Z,3.08
2019-04-28T10:57:49.400Z,3.35
2019-04-28T11:00:19.909Z,2.92
2019-04-28T11:02:49.063Z,3.62
2019-04-28T11:05:19.361Z,3.45
2019-04-28T11:07:48.181Z,2.60
2019-04-28T11:10:18.343Z,3.63
2019-04-28T11:12:47.069Z,3.40
2019-04-28T11:15:17.766Z,4.03
2019-04-28T11:17:47.999Z,5.15
2019-04-28T11:20:17.724Z,3.60
2019-04-28T11:22:47.021Z,3.12
2019-04-28T11:25:16.094Z,4.40
2019-04-28T11:27:45.131Z,2.35
2019-04-28T11:30:14.549Z,4.25
2019-04-28T11:33:00.926Z,2.95
2019-04-28T11:35:32.010Z,3.37
2019-04-28T11:38:00.741Z,3.15
2019-04-28T11:40:29.405Z,3.83
2019-04-28T11:42:58.146Z,2.62
2019-04-28T11:45:27.277Z,3.47
2019-04-28T11:47:57.591Z,3.80
2019-04-28T11:50:26.278Z,3.58
2019-04-28T11:52:54.977Z,5.45
2019-04-28T11:55:23.601Z,2.50
2019-04-28T11:57:53.798Z,3.47
2019-04-28T12:00:27.588Z,5.33
2019-04-28T12:02:56.408Z,3.20
2019-04-28T12:05:34.342Z,2.92
2019-04-28T12:07:56.974Z,4.95
2019-04-28T12:10:27.368Z,4.67
2019-04-28T12:13:09.684Z,4.43
2019-04-28T12:15:40.978Z,3.45
2019-04-28T12:18:27.701Z,3.55
2019-04-28T12:20:56.374Z,3.55
2019-04-28T12:23:25.040Z,3.12
2019-04-28T12:25:53.696Z,3.25
2019-04-28T12:28:22.406Z,4.03
2019-04-28T12:30:51.019Z,3.23
2019-04-28T12:33:20.796Z,5.23
2019-04-28T12:35:49.870Z,4.03
2019-04-28T12:38:18.938Z,4.10
2019-04-28T12:40:47.555Z,4.62
2019-04-28T12:43:16.230Z,4.12
2019-04-28T12:45:44.898Z,3.98
2019-04-28T12:48:13.608Z,5.17
2019-04-28T12:50:43.828Z,4.30
2019-04-28T12:53:12.526Z,4.58
2019-04-28T12:55:41.164Z,3.50
2019-04-28T12:58:10.446Z,5.30
2019-04-28T13:00:50.066Z,4.80
2019-04-28T13:03:22.938Z,4.33
2019-04-28T13:06:02.405Z,5.83
2019-04-28T13:08:23.457Z,4.35
2019-04-28T13:10:52.134Z,5.42
2019-04-28T13:13:20.814Z,5.58
2019-04-28T13:15:49.521Z,5.87
2019-04-28T13:18:18.187Z,5.67
2019-04-28T13:20:46.852Z,4.87
2019-04-28T13:23:15.528Z,6.10
2019-04-28T13:25:44.190Z,5.00
2019-04-28T13:28:12.885Z,5.15
2019-04-28T13:30:41.592Z,7.62
2019-04-28T13:33:10.374Z,4.53
2019-04-28T13:35:39.040Z,4.00
2019-04-28T13:38:07.651Z,8.00
2019-04-28T13:40:38.075Z,5.90
2019-04-28T13:43:06.822Z,5.30
2019-04-28T13:45:35.966Z,5.45
2019-04-28T13:48:04.832Z,6.42
2019-04-28T13:50:37.377Z,7.03
2019-04-28T13:53:06.501Z,6.28
2019-04-28T13:55:48.953Z,4.37
2019-04-28T13:58:19.183Z,4.00
2019-04-28T14:01:06.150Z,4.10
2019-04-28T14:03:37.104Z,4.90
2019-04-28T14:06:13.200Z,4.22
2019-04-28T14:08:41.822Z,5.50
2019-04-28T14:11:10.487Z,5.10
2019-04-28T14:13:39.871Z,5.83
2019-04-28T14:16:08.559Z,4.60
2019-04-28T14:18:38.247Z,5.87
2019-04-28T14:21:08.359Z,3.90
2019-04-28T14:23:38.208Z,4.75
2019-04-28T14:26:06.925Z,4.83
2019-04-28T14:28:35.591Z,3.52
2019-04-28T14:31:04.223Z,2.98
2019-04-28T14:33:33.279Z,4.70
2019-04-28T14:36:02.034Z,6.30
2019-04-28T14:38:30.658Z,5.83
2019-04-28T14:41:00.592Z,5.28
2019-04-28T14:43:30.765Z,3.47
2019-04-28T14:45:59.725Z,6.03
2019-04-28T14:48:28.495Z,5.40
2019-04-28T14:50:57.147Z,6.03
2019-04-28T14:53:25.786Z,5.30
2019-04-28T14:55:54.895Z,4.70
2019-04-28T14:58:23.651Z,4.42
2019-04-28T15:00:59.768Z,4.30
2019-04-28T15:03:30.151Z,6.03
2019-04-28T15:06:06.450Z,4.85
2019-04-28T15:08:52.741Z,4.33
2019-04-28T15:11:31.782Z,5.05
2019-04-28T15:14:00.566Z,6.22
2019-04-28T15:16:29.320Z,4.10
2019-04-28T15:18:58.001Z,5.37
2019-04-28T15:21:35.060Z,6.30
2019-04-28T15:24:04.219Z,4.95
2019-04-28T15:26:32.873Z,3.50
2019-04-28T15:29:01.553Z,5.73
2019-04-28T15:31:30.227Z,4.97
2019-04-28T15:33:58.869Z,5.30
2019-04-28T15:36:27.615Z,3.90
2019-04-28T15:38:56.272Z,4.25
2019-04-28T15:41:24.976Z,4.90
2019-04-28T15:43:54.043Z,4.05
2019-04-28T15:46:24.427Z,3.75
2019-04-28T15:48:53.052Z,3.90
2019-04-28T15:51:21.739Z,3.27
2019-04-28T15:53:51.530Z,2.25
2019-04-28T15:56:29.746Z,3.60
2019-04-28T15:58:58.463Z,3.35
2019-04-28T16:01:27.206Z,2.70
2019-04-28T16:03:55.993Z,3.75
2019-04-28T16:06:26.903Z,4.12
2019-04-28T16:08:56.490Z,3.58
2019-04-28T16:11:25.105Z,3.70
2019-04-28T16:13:53.775Z,4.35
2019-04-28T16:16:25.866Z,5.40
2019-04-28T16:18:54.598Z,3.52
2019-04-28T16:21:23.248Z,4.72
2019-04-28T16:23:51.902Z,3.33
2019-04-28T16:26:22.945Z,3.95
2019-04-28T16:28:50.952Z,3.98
2019-04-28T16:31:19.561Z,6.35
2019-04-28T16:33:48.285Z,3.87
2019-04-28T16:36:16.908Z,6.40
2019-04-28T16:38:45.705Z,3.45
2019-04-28T16:41:16.021Z,4.87
2019-04-28T16:43:49.295Z,4.12
2019-04-28T16:46:18.362Z,5.05
2019-04-28T16:48:47.223Z,3.77
2019-04-28T16:51:16.017Z,4.50
2019-04-28T16:53:44.945Z,4.15
2019-04-28T16:56:18.609Z,4.50
2019-04-28T16:59:00.834Z,5.23
2019-04-28T17:01:31.497Z,5.40
2019-04-28T17:04:00.119Z,4.77
2019-04-28T17:06:28.827Z,5.72
2019-04-28T17:08:58.672Z,3.85
2019-04-28T17:11:27.408Z,3.70
2019-04-28T17:13:56.061Z,3.47
2019-04-28T17:16:27.798Z,2.92
2019-04-28T17:18:56.547Z,5.93
2019-04-28T17:21:25.372Z,3.77
2019-04-28T17:23:55.254Z,5.53
2019-04-28T17:26:24.262Z,5.22
2019-04-28T17:28:53.121Z,3.70
2019-04-28T17:31:21.742Z,4.62
2019-04-28T17:33:50.388Z,4.03
2019-04-28T17:36:19.062Z,4.45
2019-04-28T17:38:47.720Z,3.77
2019-04-28T17:41:16.519Z,3.87
2019-04-28T17:43:45.230Z,3.60
2019-04-28T17:46:14.078Z,4.58
2019-04-28T17:48:59.589Z,5.20
2019-04-28T17:51:28.290Z,2.52
2019-04-28T17:53:57.146Z,5.17
2019-04-28T17:56:26.101Z,5.37
2019-04-28T17:58:54.778Z,5.78
2019-04-28T18:01:28.068Z,6.05
2019-04-28T18:04:00.107Z,4.17
2019-04-28T18:06:30.442Z,4.67
2019-04-28T18:08:59.445Z,5.80
2019-04-28T18:11:28.924Z,5.40
2019-04-28T18:13:57.936Z,5.55
2019-04-28T18:16:34.307Z,5.22
2019-04-28T18:19:10.410Z,5.22
2019-04-28T18:21:39.451Z,4.95
2019-04-28T18:24:08.438Z,6.22
2019-04-28T18:26:39.754Z,5.47
2019-04-28T18:29:09.170Z,5.42
2019-04-28T18:31:39.442Z,4.87
2019-04-28T18:34:09.893Z,4.60
2019-04-28T18:36:42.618Z,4.65
2019-04-28T18:39:20.590Z,5.45
2019-04-28T18:41:53.954Z,3.90
2019-04-28T18:44:23.657Z,5.58
2019-04-28T18:46:53.162Z,5.15
2019-04-28T18:49:23.905Z,4.87
2019-04-28T18:51:55.765Z,4.90
2019-04-28T18:54:24.944Z,4.17
2019-04-28T18:56:53.874Z,6.17
2019-04-28T18:59:24.421Z,4.30
2019-04-28T19:01:57.589Z,4.87
2019-04-28T19:04:26.559Z,5.10
2019-04-28T19:07:05.049Z,7.95
2019-04-28T19:09:36.675Z,5.10
2019-04-28T19:12:07.049Z,4.12
2019-04-28T19:14:40.887Z,5.20
2019-04-28T19:17:15.862Z,4.47
2019-04-28T19:19:44.694Z,4.50
2019-04-28T19:22:13.816Z,4.83
2019-04-28T19:24:42.581Z,5.72
2019-04-28T19:27:11.430Z,8.18
2019-04-28T19:29:40.152Z,3.83
2019-04-28T19:32:09.343Z,6.47
2019-04-28T19:34:37.993Z,6.20
2019-04-28T19:37:07.434Z,6.20
2019-04-28T19:39:36.104Z,6.60
2019-04-28T19:42:05.211Z,5.37
2019-04-28T19:44:34.124Z,6.40
2019-04-28T19:47:02.942Z,5.40
2019-04-28T19:49:33.210Z,7.22
2019-04-28T19:52:02.717Z,7.37
2019-04-28T19:54:33.760Z,6.50
2019-04-28T19:57:07.343Z,6.83
2019-04-28T19:59:54.706Z,6.28
2019-04-28T20:02:24.133Z,5.97
2019-04-28T20:04:52.749Z,7.05
2019-04-28T20:07:21.619Z,6.87
2019-04-28T20:09:51.497Z,7.63
2019-04-28T20:12:23.845Z,5.35
2019-04-28T20:14:53.502Z,7.42
2019-04-28T20:17:24.288Z,7.30
2019-04-28T20:19:53.286Z,6.62
2019-04-28T20:22:24.612Z,5.90
2019-04-28T20:24:57.154Z,5.83
2019-04-28T20:27:25.858Z,6.83
2019-04-28T20:29:55.173Z,6.58
2019-04-28T20:32:24.621Z,7.50
2019-04-28T20:34:53.681Z,5.62
2019-04-28T20:37:31.203Z,6.67
2019-04-28T20:40:03.772Z,6.25
2019-04-28T20:42:36.961Z,5.67
2019-04-28T20:45:06.342Z,4.87
2019-04-28T20:47:36.424Z,5.35
2019-04-28T20:50:05.667Z,6.45
2019-04-28T20:52:37.995Z,5.40
2019-04-28T20:55:07.072Z,5.85
2019-04-28T20:57:41.196Z,6.00
2019-04-28T21:00:09.937Z,6.03
2019-04-28T21:02:39.041Z,6.58
2019-04-28T21:05:08.051Z,6.30
2019-04-28T21:07:36.940Z,7.40
2019-04-28T21:10:06.149Z,8.45
2019-04-28T21:12:35.573Z,4.78
2019-04-28T21:15:05.190Z,8.60
2019-04-28T21:17:34.710Z,6.95
2019-04-28T21:20:04.857Z,5.53
2019-04-28T21:22:34.058Z,6.35
2019-04-28T21:25:03.214Z,5.87
2019-04-28T21:27:33.105Z,6.12
2019-04-28T21:30:02.121Z,7.28
2019-04-28T21:32:32.802Z,7.05
2019-04-28T21:35:01.811Z,5.80
2019-04-28T21:37:32.543Z,5.58
2019-04-28T21:40:02.182Z,6.47
2019-04-28T21:42:49.411Z,5.75
2019-04-28T21:45:20.042Z,6.33
2019-04-28T21:47:49.474Z,8.43
2019-04-28T21:50:19.390Z,6.75
2019-04-28T21:52:47.999Z,8.10
2019-04-28T21:55:17.159Z,5.72
2019-04-28T21:57:47.347Z,5.58
2019-04-28T22:00:18.307Z,6.00
2019-04-28T22:02:47.451Z,7.20
2019-04-28T22:05:29.461Z,7.72
2019-04-28T22:07:46.667Z,6.00
2019-04-28T22:10:15.827Z,6.35
2019-04-28T22:12:46.359Z,7.40
2019-04-28T22:15:15.575Z,8.08
2019-04-28T22:17:44.382Z,7.03
2019-04-28T22:20:15.185Z,7.42
2019-04-28T22:22:47.507Z,6.50
2019-04-28T22:25:18.026Z,7.85
2019-04-28T22:27:48.356Z,6.08
2019-04-28T22:30:18.079Z,7.12
2019-04-28T22:32:47.171Z,7.83
2019-04-28T22:35:16.166Z,5.00
2019-04-28T22:37:45.743Z,5.60
2019-04-28T22:40:14.886Z,6.30
2019-04-28T22:42:43.598Z,7.95
2019-04-28T22:45:13.237Z,7.40
2019-04-28T22:47:42.258Z,5.95
2019-04-28T22:50:13.623Z,7.10
2019-04-28T22:52:42.510Z,8.95
2019-04-28T22:55:13.360Z,5.87
2019-04-28T22:57:46.322Z,6.53
2019-04-28T23:00:33.761Z,7.40
2019-04-28T23:03:02.427Z,7.25
2019-04-28T23:05:31.539Z,7.30
2019-04-28T23:08:00.343Z,6.85
2019-04-28T23:10:29.562Z,6.80
2019-04-28T23:12:58.525Z,6.40
2019-04-28T23:15:29.464Z,6.05
2019-04-28T23:17:58.570Z,7.37
2019-04-28T23:20:28.768Z,6.22
2019-04-28T23:22:59.135Z,9.98
2019-04-28T23:25:28.350Z,6.62
2019-04-28T23:27:57.174Z,5.72
2019-04-28T23:30:42.690Z,6.17
2019-04-28T23:33:11.891Z,6.55
2019-04-28T23:35:41.340Z,6.25
2019-04-28T23:38:10.232Z,7.10
2019-04-28T23:40:40.793Z,5.73
2019-04-28T23:43:14.246Z,9.58
2019-04-28T23:45:44.767Z,6.62
2019-04-28T23:48:14.119Z,5.30
2019-04-28T23:50:44.423Z,7.87
2019-04-28T23:53:17.420Z,7.10
2019-04-28T23:55:46.572Z,5.58
2019-04-28T23:58:15.416Z,5.97
